Time;durP1;ratioP1;P1;durP2;ratioP2;P2;SDS_P1;SDS_P2;PMS_P1;PMS_P2;Temp;Humidity;BMP_temperature;BMP_pressure;BME280_temperature;BME280_humidity;BME280_pressure;Samples;Min_cycle;Max_cycle;Signal;HPM_P1;HPM_P2
2022/04/26 03:38:27;;;;;;;4.33;3.93;;;;;;;;;;6186923;23;20167;-83
2022/04/26 03:40:58;;;;;;;7.77;3.83;;;;;;;;;;6161031;23;20181;-84
2022/04/26 03:43:26;;;;;;;4.50;3.23;;;;;;;;;;6161250;23;20243;-83
2022/04/26 03:45:54;;;;;;;3.53;3.23;;;;;;;;;;6187230;23;20176;-84
2022/04/26 03:48:23;;;;;;;3.70;2.60;;;;;;;;;;6187126;23;20220;-84
2022/04/26 03:50:53;;;;;;;11.67;5.27;;;;;;;;;;6187041;23;20172;-84
2022/04/26 03:53:21;;;;;;;4.43;3.93;;;;;;;;;;6186937;23;20169;-84
2022/04/26 03:55:50;;;;;;;1.87;1.80;;;;;;;;;;6185853;23;20176;-84
2022/04/26 03:58:18;;;;;;;2.30;2.17;;;;;;;;;;6187083;23;20251;-84
2022/04/26 04:00:47;;;;;;;6.30;3.17;;;;;;;;;;6160944;23;20189;-84
2022/04/26 04:03:15;;;;;;;5.30;2.70;;;;;;;;;;6160509;23;20183;-84
2022/04/26 04:05:43;;;;;;;6.13;3.27;;;;;;;;;;6160600;23;20212;-84
2022/04/26 04:08:16;;;;;;;3.83;3.30;;;;;;;;;;6160710;23;20195;-85
2022/04/26 04:10:45;;;;;;;3.87;3.57;;;;;;;;;;6160866;23;20236;-84
2022/04/26 04:13:13;;;;;;;3.97;3.67;;;;;;;;;;6187292;23;20168;-84
2022/04/26 04:15:42;;;;;;;2.60;2.40;;;;;;;;;;6161261;23;20190;-84
2022/04/26 04:20:52;;;;;;;4.17;3.77;;;;;;;;;;6159813;23;20179;-84
2022/04/26 04:23:22;;;;;;;5.03;3.20;;;;;;;;;;6162091;23;20266;-84
2022/04/26 04:25:51;;;;;;;5.47;4.30;;;;;;;;;;6162781;23;20175;-84
2022/04/26 04:28:19;;;;;;;5.73;4.97;;;;;;;;;;6188839;23;20191;-84
2022/04/26 04:30:48;;;;;;;4.50;3.17;;;;;;;;;;6162655;23;20184;-84
2022/04/26 04:33:16;;;;;;;6.20;3.97;;;;;;;;;;6162531;23;20184;-84
2022/04/26 04:35:45;;;;;;;4.13;3.70;;;;;;;;;;6162540;23;20185;-84
2022/04/26 04:38:13;;;;;;;5.53;3.60;;;;;;;;;;6162045;23;20184;-84
2022/04/26 04:40:43;;;;;;;2.57;2.13;;;;;;;;;;6162391;23;20184;-84
2022/04/26 04:43:12;;;;;;;3.23;3.03;;;;;;;;;;6162252;23;20183;-84
2022/04/26 04:45:40;;;;;;;3.87;3.57;;;;;;;;;;6162413;23;20181;-84
2022/04/26 04:48:09;;;;;;;11.87;4.17;;;;;;;;;;6162084;23;20179;-84
2022/04/26 04:50:38;;;;;;;5.67;4.50;;;;;;;;;;6162105;23;20188;-84
2022/04/26 04:53:06;;;;;;;3.13;2.50;;;;;;;;;;6162495;23;20175;-84
2022/04/26 04:55:35;;;;;;;6.03;3.33;;;;;;;;;;6161930;23;20175;-84
2022/04/26 04:58:04;;;;;;;3.53;2.93;;;;;;;;;;6162829;23;20183;-84
2022/04/26 05:00:33;;;;;;;2.67;2.47;;;;;;;;;;6162686;23;20173;-84
2022/04/26 05:03:01;;;;;;;1.83;1.73;;;;;;;;;;6162323;23;20177;-84
2022/04/26 05:05:30;;;;;;;1.57;1.47;;;;;;;;;;6162199;23;20216;-84
2022/04/26 05:07:59;;;;;;;4.37;2.40;;;;;;;;;;6188553;23;20176;-84
2022/04/26 05:10:29;;;;;;;6.47;3.87;;;;;;;;;;6188265;23;20195;-84
2022/04/26 05:12:57;;;;;;;4.63;3.33;;;;;;;;;;6161990;23;20181;-85
2022/04/26 05:15:27;;;;;;;2.73;2.53;;;;;;;;;;6187922;23;20182;-84
2022/04/26 05:17:56;;;;;;;2.67;2.47;;;;;;;;;;6162050;23;20216;-84
2022/04/26 05:20:24;;;;;;;3.63;3.30;;;;;;;;;;6162394;23;20175;-84
2022/04/26 05:25:53;;;;;;;4.90;3.57;;;;;;;;;;6068428;23;20192;-83
2022/04/26 05:28:21;;;;;;;7.97;3.50;;;;;;;;;;6044108;23;20180;-83
2022/04/26 05:30:54;;;;;;;2.60;2.40;;;;;;;;;;6123563;23;20215;-83
2022/04/26 05:33:23;;;;;;;4.40;4.00;;;;;;;;;;6161207;23;20183;-84
2022/04/26 05:35:52;;;;;;;3.13;2.70;;;;;;;;;;6161459;23;20183;-84
2022/04/26 05:38:21;;;;;;;3.77;3.47;;;;;;;;;;6161000;23;20205;-84
2022/04/26 05:40:50;;;;;;;3.23;2.50;;;;;;;;;;6187505;23;20196;-83
2022/04/26 05:43:18;;;;;;;8.47;3.73;;;;;;;;;;6187168;23;20243;-84
2022/04/26 05:45:47;;;;;;;5.50;4.63;;;;;;;;;;6161257;23;20181;-84
2022/04/26 05:48:17;;;;;;;2.83;2.63;;;;;;;;;;6187709;23;20208;-84
2022/04/26 05:50:45;;;;;;;3.97;3.40;;;;;;;;;;6162859;23;20204;-83
2022/04/26 05:53:13;;;;;;;4.30;3.33;;;;;;;;;;6188569;23;20236;-85
2022/04/26 05:55:42;;;;;;;4.33;3.70;;;;;;;;;;6160384;23;20179;-82
2022/04/26 05:58:11;;;;;;;4.37;2.63;;;;;;;;;;6186148;23;20177;-81
2022/04/26 06:00:39;;;;;;;7.50;3.13;;;;;;;;;;6159937;23;20179;-82
2022/04/26 06:03:07;;;;;;;4.57;3.83;;;;;;;;;;6186188;23;20174;-82
2022/04/26 06:05:38;;;;;;;3.00;2.70;;;;;;;;;;6159781;23;20210;-82
2022/04/26 06:08:08;;;;;;;6.37;3.43;;;;;;;;;;6159926;23;20228;-82
2022/04/26 06:10:39;;;;;;;12.30;4.60;;;;;;;;;;6160323;23;20200;-82
2022/04/26 06:13:08;;;;;;;5.53;3.47;;;;;;;;;;6160125;23;20182;-82
2022/04/26 06:15:37;;;;;;;5.67;3.97;;;;;;;;;;6159806;23;20177;-82
2022/04/26 06:18:05;;;;;;;6.60;3.03;;;;;;;;;;6185544;23;20174;-82
2022/04/26 06:20:34;;;;;;;3.60;2.40;;;;;;;;;;6159699;23;20180;-82
2022/04/26 06:23:04;;;;;;;7.70;4.13;;;;;;;;;;6160129;23;20201;-83
2022/04/26 06:25:36;;;;;;;8.63;3.03;;;;;;;;;;6186775;23;20185;-82
2022/04/26 06:28:05;;;;;;;4.00;3.53;;;;;;;;;;6160327;23;20177;-82
2022/04/26 06:30:34;;;;;;;3.27;2.97;;;;;;;;;;6159996;23;20253;-82
2022/04/26 06:33:02;;;;;;;3.67;2.80;;;;;;;;;;6160351;23;20185;-83
2022/04/26 06:35:31;;;;;;;13.57;2.83;;;;;;;;;;6160161;23;20188;-83
2022/04/26 06:37:59;;;;;;;7.57;3.87;;;;;;;;;;6186547;23;20181;-82
2022/04/26 06:40:32;;;;;;;3.03;2.60;;;;;;;;;;6159875;23;20185;-83
2022/04/26 06:43:00;;;;;;;4.40;3.77;;;;;;;;;;6184691;23;20185;-84
2022/04/26 06:45:28;;;;;;;5.67;2.97;;;;;;;;;;6185642;23;20174;-84
2022/04/26 06:47:57;;;;;;;3.97;3.30;;;;;;;;;;6159021;23;20176;-83
2022/04/26 06:50:25;;;;;;;7.40;2.17;;;;;;;;;;6185773;23;20202;-84
2022/04/26 06:52:59;;;;;;;3.07;2.37;;;;;;;;;;6160659;23;20181;-83
2022/04/26 06:55:27;;;;;;;5.37;3.30;;;;;;;;;;6159964;23;20202;-83
2022/04/26 06:57:58;;;;;;;5.30;2.47;;;;;;;;;;6159588;23;20262;-83
2022/04/26 07:00:27;;;;;;;4.33;3.77;;;;;;;;;;6161563;23;20174;-84
2022/04/26 07:02:56;;;;;;;6.53;3.53;;;;;;;;;;6163120;23;20186;-84
2022/04/26 07:05:28;;;;;;;3.93;3.53;;;;;;;;;;6157118;23;20211;-83
2022/04/26 07:07:57;;;;;;;6.33;3.77;;;;;;;;;;6158191;23;20250;-84
2022/04/26 07:10:28;;;;;;;6.67;2.97;;;;;;;;;;6157544;23;20195;-83
2022/04/26 07:12:59;;;;;;;3.43;2.40;;;;;;;;;;6158247;23;20183;-84
2022/04/26 07:15:27;;;;;;;2.43;2.23;;;;;;;;;;6157684;23;20223;-84
2022/04/26 07:17:56;;;;;;;3.53;2.27;;;;;;;;;;6157873;23;20203;-84
2022/04/26 07:20:27;;;;;;;4.90;2.83;;;;;;;;;;6158363;23;20226;-84
2022/04/26 07:22:58;;;;;;;4.83;2.30;;;;;;;;;;6157815;23;20180;-84
2022/04/26 07:25:27;;;;;;;3.93;2.67;;;;;;;;;;6156812;23;20180;-84
2022/04/26 07:27:56;;;;;;;4.60;3.43;;;;;;;;;;6157772;23;20186;-84
2022/04/26 07:30:34;;;;;;;2.50;1.90;;;;;;;;;;6156660;23;20253;-84
2022/04/26 07:35:49;;;;;;;3.50;3.20;;;;;;;;;;6156671;23;20183;-84
2022/04/26 07:38:19;;;;;;;8.07;4.13;;;;;;;;;;6157039;23;20175;-83
2022/04/26 07:40:47;;;;;;;3.60;3.03;;;;;;;;;;6156762;23;20172;-84
2022/04/26 07:43:16;;;;;;;3.30;2.50;;;;;;;;;;6157347;23;20179;-83
2022/04/26 07:45:48;;;;;;;3.80;3.00;;;;;;;;;;6156628;23;20397;-83
2022/04/26 07:48:17;;;;;;;3.33;2.10;;;;;;;;;;6157203;23;20199;-84
2022/04/26 07:50:47;;;;;;;2.33;2.13;;;;;;;;;;6156031;23;20195;-83
2022/04/26 07:53:16;;;;;;;7.43;3.10;;;;;;;;;;6156870;23;20214;-83
2022/04/26 07:55:45;;;;;;;6.43;3.20;;;;;;;;;;6155931;23;20179;-82
2022/04/26 07:58:13;;;;;;;7.63;2.90;;;;;;;;;;6157825;23;20180;-83
2022/04/26 08:00:42;;;;;;;2.60;2.07;;;;;;;;;;6158454;23;20175;-83
2022/04/26 08:03:13;;;;;;;1.73;1.63;;;;;;;;;;6183239;23;20179;-85
2022/04/26 08:05:42;;;;;;;2.83;2.50;;;;;;;;;;6157327;23;20226;-84
2022/04/26 08:08:10;;;;;;;3.17;2.53;;;;;;;;;;6157363;23;20203;-84
2022/04/26 08:10:39;;;;;;;2.80;2.50;;;;;;;;;;6156421;23;20262;-82
2022/04/26 08:13:08;;;;;;;4.63;2.77;;;;;;;;;;6156946;23;20184;-83
2022/04/26 08:15:36;;;;;;;3.07;2.50;;;;;;;;;;6157295;23;20214;-83
2022/04/26 08:18:05;;;;;;;3.27;2.97;;;;;;;;;;6157169;23;20175;-84
2022/04/26 08:20:44;;;;;;;2.33;2.13;;;;;;;;;;6181888;23;20179;-84
2022/04/26 08:23:13;;;;;;;3.07;2.80;;;;;;;;;;6157397;23;20175;-84
2022/04/26 08:28:28;;;;;;;3.13;2.40;;;;;;;;;;6158599;23;20180;-83
2022/04/26 08:30:57;;;;;;;2.07;1.93;;;;;;;;;;6156760;23;20219;-83
2022/04/26 08:33:26;;;;;;;2.17;2.03;;;;;;;;;;6156502;23;20234;-84
2022/04/26 08:35:56;;;;;;;4.53;3.53;;;;;;;;;;6157282;23;20176;-84
2022/04/26 08:38:32;;;;;;;4.67;2.20;;;;;;;;;;6156653;23;20183;-83
2022/04/26 08:41:00;;;;;;;4.50;2.27;;;;;;;;;;6156611;23;20223;-83
2022/04/26 08:43:33;;;;;;;2.77;2.57;;;;;;;;;;6157134;23;20266;-84
2022/04/26 08:46:03;;;;;;;3.37;2.70;;;;;;;;;;6157649;23;20203;-83
2022/04/26 08:51:20;;;;;;;1.60;1.50;;;;;;;;;;6157243;23;20196;-83
2022/04/26 08:53:52;;;;;;;2.67;2.47;;;;;;;;;;6157069;23;20190;-83
2022/04/26 08:56:21;;;;;;;2.40;2.23;;;;;;;;;;6157522;23;20180;-83
2022/04/26 08:58:50;;;;;;;4.23;1.80;;;;;;;;;;6157381;23;20180;-83
2022/04/26 09:01:19;;;;;;;4.20;2.50;;;;;;;;;;6159807;23;20172;-84
2022/04/26 09:03:59;;;;;;;5.93;1.43;;;;;;;;;;6157147;23;20239;-84
2022/04/26 09:06:45;;;;;;;3.43;1.93;;;;;;;;;;6156550;23;20213;-83
2022/04/26 09:09:17;;;;;;;2.53;2.33;;;;;;;;;;6156590;23;20176;-83
2022/04/26 09:11:46;;;;;;;3.43;2.70;;;;;;;;;;6157327;23;20192;-84
2022/04/26 09:14:30;;;;;;;3.60;2.40;;;;;;;;;;6157158;23;20243;-84
2022/04/26 09:17:05;;;;;;;2.60;2.13;;;;;;;;;;6156928;23;20230;-84
2022/04/26 09:19:46;;;;;;;4.47;1.83;;;;;;;;;;6157040;23;20180;-84
2022/04/26 09:22:25;;;;;;;2.37;1.73;;;;;;;;;;6157102;23;20178;-85
2022/04/26 09:24:57;;;;;;;1.80;1.70;;;;;;;;;;6156791;23;20191;-84
2022/04/26 09:27:26;;;;;;;5.53;2.60;;;;;;;;;;6156514;23;20181;-84
2022/04/26 09:29:55;;;;;;;2.67;2.00;;;;;;;;;;6156716;23;20321;-84
2022/04/26 09:32:24;;;;;;;2.77;2.57;;;;;;;;;;6157119;23;20196;-85
2022/04/26 09:34:53;;;;;;;2.20;2.00;;;;;;;;;;6157634;23;20203;-84
2022/04/26 09:37:22;;;;;;;3.80;1.97;;;;;;;;;;6156663;23;20176;-84
2022/04/26 09:40:06;;;;;;;7.23;2.33;;;;;;;;;;6156625;23;20180;-84
2022/04/26 09:42:36;;;;;;;5.23;2.17;;;;;;;;;;6156258;23;20200;-83
2022/04/26 09:45:06;;;;;;;6.77;2.67;;;;;;;;;;6156782;23;20189;-84
2022/04/26 09:47:38;;;;;;;1.80;1.57;;;;;;;;;;6156561;23;20211;-84
2022/04/26 09:50:09;;;;;;;2.50;2.17;;;;;;;;;;6156135;23;20177;-84
2022/04/26 09:52:38;;;;;;;3.57;2.00;;;;;;;;;;6156224;23;20193;-83
2022/04/26 09:55:09;;;;;;;7.13;1.57;;;;;;;;;;6156826;23;20182;-83
2022/04/26 09:57:38;;;;;;;6.87;2.43;;;;;;;;;;6156479;23;20176;-82
2022/04/26 10:00:10;;;;;;;3.57;2.43;;;;;;;;;;6156387;23;20172;-83
2022/04/26 10:02:39;;;;;;;3.27;2.10;;;;;;;;;;6156322;23;20169;-84
2022/04/26 10:05:11;;;;;;;1.83;1.70;;;;;;;;;;6155970;23;20212;-83
2022/04/26 10:07:45;;;;;;;1.70;1.60;;;;;;;;;;6156043;23;20173;-84
2022/04/26 10:10:15;;;;;;;2.97;2.43;;;;;;;;;;6155320;23;20568;-84
2022/04/26 10:13:31;;;;;;;2.27;2.07;;;;;;;;;;6156094;23;20201;-84
2022/04/26 10:15:34;;;;;;;2.90;2.37;;;;;;;;;;6155667;23;20189;-83
2022/04/26 10:18:03;;;;;;;2.43;2.23;;;;;;;;;;6156269;23;20177;-84
2022/04/26 10:20:41;;;;;;;3.43;1.90;;;;;;;;;;6155887;23;20184;-84
2022/04/26 10:23:12;;;;;;;2.13;1.93;;;;;;;;;;6155981;23;20201;-84
2022/04/26 10:25:42;;;;;;;3.93;3.33;;;;;;;;;;6156152;23;20178;-84
2022/04/26 10:28:28;;;;;;;5.63;2.40;;;;;;;;;;6156324;23;20177;-85
2022/04/26 10:30:59;;;;;;;2.03;1.90;;;;;;;;;;6156618;23;20181;-85
2022/04/26 10:33:42;;;;;;;1.93;1.53;;;;;;;;;;6155831;23;20308;-84
2022/04/26 10:36:29;;;;;;;1.80;1.70;;;;;;;;;;6155209;23;20178;-84
2022/04/26 10:39:17;;;;;;;2.13;1.90;;;;;;;;;;6130369;23;20255;-84
2022/04/26 10:41:48;;;;;;;3.90;2.53;;;;;;;;;;6155419;23;20202;-84
2022/04/26 10:44:23;;;;;;;2.03;1.83;;;;;;;;;;6155887;23;20237;-83
2022/04/26 10:47:07;;;;;;;2.57;1.73;;;;;;;;;;6155123;23;20178;-83
2022/04/26 10:49:45;;;;;;;1.60;1.50;;;;;;;;;;6154349;23;20262;-84
2022/04/26 10:52:35;;;;;;;1.60;1.50;;;;;;;;;;6154978;23;20198;-83
2022/04/26 10:55:22;;;;;;;2.10;1.40;;;;;;;;;;6155312;23;20176;-83
2022/04/26 10:57:52;;;;;;;1.30;1.20;;;;;;;;;;6154386;23;20193;-85
2022/04/26 11:00:27;;;;;;;2.50;1.57;;;;;;;;;;6180153;23;20177;-83
2022/04/26 11:03:00;;;;;;;1.93;1.67;;;;;;;;;;6154966;23;20187;-84
2022/04/26 11:05:32;;;;;;;2.27;2.07;;;;;;;;;;6155505;23;20217;-84
2022/04/26 11:08:01;;;;;;;2.63;2.30;;;;;;;;;;6156474;23;20256;-83
2022/04/26 11:11:00;;;;;;;6.57;2.20;;;;;;;;;;6155864;23;20181;-83
2022/04/26 11:13:22;;;;;;;1.53;1.40;;;;;;;;;;6156756;23;20216;-83
2022/04/26 11:16:06;;;;;;;1.73;1.63;;;;;;;;;;6156012;23;20180;-84
2022/04/26 11:18:35;;;;;;;3.53;2.67;;;;;;;;;;6154832;23;20205;-83
2022/04/26 11:21:03;;;;;;;2.80;2.60;;;;;;;;;;6155480;23;20305;-83
2022/04/26 11:29:34;;;;;;;6.43;2.13;;;;;;;;;;6152951;23;20176;-84
2022/04/26 11:32:04;;;;;;;3.00;2.80;;;;;;;;;;6153388;23;20413;-84
2022/04/26 11:34:49;;;;;;;1.63;1.53;;;;;;;;;;6152937;23;20216;-82
2022/04/26 11:37:18;;;;;;;1.90;1.80;;;;;;;;;;6152658;23;20267;-83
2022/04/26 11:39:47;;;;;;;2.57;2.30;;;;;;;;;;6154247;23;20188;-83
2022/04/26 11:42:16;;;;;;;2.20;2.00;;;;;;;;;;6153671;23;20179;-83
2022/04/26 11:45:05;;;;;;;2.27;2.10;;;;;;;;;;6154723;23;20178;-83
2022/04/26 11:47:41;;;;;;;3.93;1.87;;;;;;;;;;6154512;23;20181;-83
2022/04/26 11:50:14;;;;;;;2.33;2.13;;;;;;;;;;6154714;23;20275;-83
2022/04/26 11:52:43;;;;;;;1.30;1.30;;;;;;;;;;6154148;23;20204;-83
2022/04/26 11:55:22;;;;;;;2.83;1.87;;;;;;;;;;6154418;23;20187;-83
2022/04/26 11:57:52;;;;;;;2.43;2.03;;;;;;;;;;6154827;23;20182;-83
2022/04/26 12:00:23;;;;;;;2.40;2.20;;;;;;;;;;6154704;23;20177;-83
2022/04/26 12:02:51;;;;;;;2.30;2.03;;;;;;;;;;6154325;23;20199;-83
2022/04/26 12:05:21;;;;;;;2.60;2.40;;;;;;;;;;6154489;23;20287;-83
2022/04/26 12:07:50;;;;;;;2.50;2.30;;;;;;;;;;6154377;23;20188;-82
2022/04/26 12:10:26;;;;;;;3.67;1.73;;;;;;;;;;6154435;23;20409;-82
2022/04/26 12:12:55;;;;;;;2.77;2.27;;;;;;;;;;6154172;23;20223;-83
2022/04/26 12:15:33;;;;;;;2.03;1.93;;;;;;;;;;6153843;23;20268;-84
2022/04/26 12:18:09;;;;;;;2.90;2.70;;;;;;;;;;6154284;23;20172;-84
2022/04/26 12:20:39;;;;;;;2.40;2.20;;;;;;;;;;6154402;23;20182;-85
2022/04/26 12:26:32;;;;;;;2.93;2.40;;;;;;;;;;6137147;23;20208;-84
2022/04/26 12:29:13;;;;;;;2.57;2.37;;;;;;;;;;6154230;23;20271;-83
2022/04/26 12:31:46;;;;;;;3.93;2.27;;;;;;;;;;6154012;23;20181;-83
2022/04/26 12:34:19;;;;;;;2.77;2.20;;;;;;;;;;6153817;23;20197;-83
2022/04/26 12:36:52;;;;;;;1.70;1.60;;;;;;;;;;6154380;23;20180;-84
2022/04/26 12:39:21;;;;;;;3.13;2.73;;;;;;;;;;6154671;23;20177;-84
2022/04/26 12:41:50;;;;;;;1.70;1.60;;;;;;;;;;6154695;23;20189;-83
2022/04/26 12:44:20;;;;;;;1.47;1.43;;;;;;;;;;6155587;23;20203;-83
2022/04/26 12:50:27;;;;;;;3.90;3.57;;;;;;;;;;6156179;23;20176;-83
2022/04/26 12:52:48;;;;;;;3.13;2.07;;;;;;;;;;6156078;23;20223;-84
2022/04/26 12:55:27;;;;;;;4.47;1.37;;;;;;;;;;6156259;23;20182;-84
2022/04/26 12:57:56;;;;;;;2.27;2.17;;;;;;;;;;6156059;23;20224;-83
2022/04/26 13:00:26;;;;;;;1.10;1.10;;;;;;;;;;6157671;23;20181;-84
2022/04/26 13:02:58;;;;;;;1.20;1.17;;;;;;;;;;6157475;23;20174;-84
2022/04/26 13:05:40;;;;;;;4.03;2.50;;;;;;;;;;6183090;23;20214;-84
2022/04/26 13:08:10;;;;;;;2.50;2.07;;;;;;;;;;6159185;23;20177;-84
2022/04/26 13:10:40;;;;;;;2.37;1.70;;;;;;;;;;6159851;23;20178;-84
2022/04/26 13:13:09;;;;;;;7.83;2.30;;;;;;;;;;6160460;23;20193;-85
2022/04/26 13:15:42;;;;;;;1.73;1.63;;;;;;;;;;6160137;23;20181;-85
2022/04/26 13:18:15;;;;;;;2.70;2.37;;;;;;;;;;6162193;23;20229;-84
2022/04/26 13:20:44;;;;;;;4.17;2.67;;;;;;;;;;6160140;23;20213;-85
2022/04/26 13:23:13;;;;;;;2.03;1.93;;;;;;;;;;6159446;23;20184;-85
2022/04/26 13:25:44;;;;;;;6.83;2.60;;;;;;;;;;6160446;23;20184;-85
2022/04/26 13:28:13;;;;;;;2.30;2.10;;;;;;;;;;6160631;23;20178;-85
2022/04/26 13:30:44;;;;;;;2.77;2.57;;;;;;;;;;6161197;23;20204;-85
2022/04/26 13:33:14;;;;;;;2.03;1.93;;;;;;;;;;6161067;23;20193;-84
2022/04/26 13:35:47;;;;;;;1.73;1.63;;;;;;;;;;6156740;23;20241;-85
2022/04/26 13:38:16;;;;;;;1.80;1.70;;;;;;;;;;6155835;23;20175;-83
2022/04/26 13:40:45;;;;;;;2.33;2.10;;;;;;;;;;6156274;23;20261;-84
2022/04/26 13:43:16;;;;;;;3.53;2.03;;;;;;;;;;6156292;23;20175;-84
2022/04/26 13:46:07;;;;;;;2.93;1.90;;;;;;;;;;6156835;23;20177;-84
2022/04/26 13:48:37;;;;;;;3.70;1.93;;;;;;;;;;6156350;23;20242;-84
2022/04/26 13:51:06;;;;;;;3.37;2.23;;;;;;;;;;6156241;23;20265;-84
2022/04/26 13:53:35;;;;;;;2.00;1.90;;;;;;;;;;6156512;23;20230;-84
2022/04/26 13:56:06;;;;;;;3.50;2.30;;;;;;;;;;6156029;23;20229;-83
2022/04/26 13:58:35;;;;;;;2.53;2.33;;;;;;;;;;6155947;23;20184;-84
2022/04/26 14:01:04;;;;;;;1.23;1.13;;;;;;;;;;6156615;23;20177;-83
2022/04/26 14:03:33;;;;;;;1.20;1.20;;;;;;;;;;6156198;23;20180;-82
2022/04/26 14:06:10;;;;;;;1.60;1.50;;;;;;;;;;6155391;23;20213;-83
2022/04/26 14:08:40;;;;;;;2.67;2.17;;;;;;;;;;6155761;23;20176;-84
2022/04/26 14:11:09;;;;;;;1.20;1.20;;;;;;;;;;6155870;23;20180;-84
2022/04/26 14:21:55;;;;;;;3.37;2.37;;;;;;;;;;6181412;23;20244;-84
2022/04/26 14:24:23;;;;;;;3.47;2.70;;;;;;;;;;6156146;23;20183;-85
2022/04/26 14:26:53;;;;;;;2.47;1.77;;;;;;;;;;6180334;23;20204;-83
2022/04/26 14:29:22;;;;;;;2.30;1.30;;;;;;;;;;6155695;23;20229;-83
2022/04/26 14:31:51;;;;;;;3.17;1.63;;;;;;;;;;6155633;23;20178;-83
2022/04/26 14:34:22;;;;;;;2.97;1.90;;;;;;;;;;6154989;23;20224;-84
2022/04/26 14:36:50;;;;;;;2.00;1.80;;;;;;;;;;6155219;23;20177;-84
2022/04/26 14:39:26;;;;;;;2.40;1.80;;;;;;;;;;6155500;23;20180;-83
2022/04/26 14:41:54;;;;;;;6.23;2.30;;;;;;;;;;6154847;23;20252;-84
2022/04/26 14:44:23;;;;;;;2.07;1.93;;;;;;;;;;6154628;23;20172;-84
2022/04/26 14:46:52;;;;;;;5.17;2.90;;;;;;;;;;6154620;23;20204;-84
2022/04/26 14:49:20;;;;;;;2.63;2.37;;;;;;;;;;6154867;23;20185;-83
2022/04/26 14:51:49;;;;;;;1.40;1.30;;;;;;;;;;6154458;23;20187;-83
2022/04/26 14:54:18;;;;;;;3.33;1.73;;;;;;;;;;6154409;23;20232;-83
2022/04/26 14:56:48;;;;;;;1.73;1.47;;;;;;;;;;6154572;23;20246;-83
2022/04/26 14:59:17;;;;;;;2.17;2.00;;;;;;;;;;6154977;23;20179;-83
2022/04/26 15:01:46;;;;;;;2.50;2.00;;;;;;;;;;6156245;23;20181;-84
2022/04/26 15:04:16;;;;;;;7.43;2.80;;;;;;;;;;6157246;23;20260;-84
2022/04/26 15:06:45;;;;;;;4.03;1.57;;;;;;;;;;6155609;23;20217;-83
2022/04/26 15:17:35;;;;;;;7.03;2.10;;;;;;;;;;6157751;23;20206;-84
2022/04/26 15:20:04;;;;;;;2.40;1.90;;;;;;;;;;6157730;23;20207;-85
2022/04/26 15:22:37;;;;;;;3.87;2.17;;;;;;;;;;6156301;23;20270;-85
2022/04/26 15:25:06;;;;;;;3.20;2.17;;;;;;;;;;6156415;23;20181;-84
2022/04/26 15:27:38;;;;;;;10.40;2.13;;;;;;;;;;6155791;23;20183;-84
2022/04/26 15:30:07;;;;;;;3.93;1.87;;;;;;;;;;6156015;23;20246;-84
2022/04/26 15:32:35;;;;;;;3.60;1.30;;;;;;;;;;6156538;23;20174;-84
2022/04/26 15:35:04;;;;;;;4.57;3.03;;;;;;;;;;6157083;23;20220;-85
2022/04/26 15:37:35;;;;;;;3.90;1.40;;;;;;;;;;6157356;23;20233;-85
2022/04/26 15:40:03;;;;;;;2.43;2.20;;;;;;;;;;6157288;23;20176;-85
2022/04/26 15:42:32;;;;;;;2.33;1.73;;;;;;;;;;6157301;23;20180;-83
2022/04/26 15:45:02;;;;;;;7.83;2.13;;;;;;;;;;6156754;23;20180;-84
2022/04/26 15:47:31;;;;;;;4.97;2.87;;;;;;;;;;6156660;23;20177;-82
2022/04/26 15:50:00;;;;;;;4.47;2.13;;;;;;;;;;6156428;23;20177;-83
2022/04/26 15:52:28;;;;;;;3.57;2.70;;;;;;;;;;6158924;23;20178;-83
2022/04/26 15:54:57;;;;;;;2.53;2.07;;;;;;;;;;6156690;23;20194;-84
2022/04/26 15:57:25;;;;;;;1.93;1.83;;;;;;;;;;6157425;23;20188;-83
2022/04/26 15:59:54;;;;;;;2.10;2.00;;;;;;;;;;6156391;23;20178;-83
2022/04/26 16:02:24;;;;;;;1.70;1.60;;;;;;;;;;6156792;23;20218;-83
2022/04/26 16:04:53;;;;;;;1.53;1.43;;;;;;;;;;6158719;23;20169;-83
2022/04/26 16:07:21;;;;;;;2.73;2.17;;;;;;;;;;6161496;23;20200;-83
2022/04/26 16:21:03;;;;;;;6.77;1.77;;;;;;;;;;6163914;23;20181;-83
2022/04/26 16:23:31;;;;;;;2.50;1.80;;;;;;;;;;6189901;23;20177;-83
2022/04/26 16:26:02;;;;;;;2.23;2.13;;;;;;;;;;6162446;23;20189;-84
2022/04/26 16:28:31;;;;;;;5.73;1.77;;;;;;;;;;6163483;23;20259;-84
2022/04/26 16:30:59;;;;;;;1.57;1.47;;;;;;;;;;6162867;23;20204;-83
2022/04/26 16:33:29;;;;;;;1.73;1.63;;;;;;;;;;6163464;23;20171;-83
2022/04/26 16:36:01;;;;;;;1.40;1.30;;;;;;;;;;6185512;23;20192;-83
2022/04/26 16:38:30;;;;;;;1.43;1.37;;;;;;;;;;6161985;23;20176;-83
2022/04/26 16:44:35;;;;;;;3.50;1.50;;;;;;;;;;6147564;23;20179;-83
2022/04/26 16:47:07;;;;;;;1.90;1.70;;;;;;;;;;6187580;23;20263;-83
2022/04/26 16:49:37;;;;;;;2.23;2.03;;;;;;;;;;6163381;23;20176;-83
2022/04/26 16:52:07;;;;;;;5.50;1.87;;;;;;;;;;6161760;23;20283;-83
2022/04/26 16:54:36;;;;;;;1.17;1.17;;;;;;;;;;6163353;23;20176;-83
2022/04/26 16:57:05;;;;;;;2.10;1.73;;;;;;;;;;6187703;23;20173;-84
2022/04/26 16:59:33;;;;;;;1.70;1.50;;;;;;;;;;6189128;23;20168;-84
2022/04/26 17:02:02;;;;;;;5.40;1.97;;;;;;;;;;6163172;23;20182;-84
2022/04/26 17:04:31;;;;;;;2.93;1.40;;;;;;;;;;6163309;23;20268;-83
2022/04/26 17:07:01;;;;;;;2.57;1.47;;;;;;;;;;6158080;23;20210;-84
2022/04/26 17:09:33;;;;;;;2.70;1.73;;;;;;;;;;6158451;23;20180;-84
2022/04/26 17:12:01;;;;;;;2.97;1.83;;;;;;;;;;6156919;23;20178;-84
2022/04/26 17:14:31;;;;;;;2.47;1.90;;;;;;;;;;6157633;23;20225;-84
2022/04/26 17:17:00;;;;;;;2.03;1.90;;;;;;;;;;6157257;23;20172;-84
2022/04/26 17:19:29;;;;;;;3.50;1.97;;;;;;;;;;6157455;23;20183;-84
2022/04/26 17:21:59;;;;;;;2.77;2.50;;;;;;;;;;6156796;23;20180;-83
2022/04/26 17:27:17;;;;;;;3.90;2.07;;;;;;;;;;6158376;23;20254;-84
2022/04/26 17:29:45;;;;;;;1.70;1.47;;;;;;;;;;6158474;23;20172;-84
2022/04/26 17:32:14;;;;;;;3.40;1.57;;;;;;;;;;6157431;23;20176;-84
2022/04/26 17:34:43;;;;;;;1.93;1.83;;;;;;;;;;6157916;23;20206;-84
2022/04/26 17:37:12;;;;;;;1.03;1.03;;;;;;;;;;6156728;23;20183;-84
2022/04/26 17:39:42;;;;;;;1.00;1.00;;;;;;;;;;6156632;23;20177;-85
2022/04/26 17:42:11;;;;;;;1.70;1.37;;;;;;;;;;6158288;23;20179;-84
2022/04/26 17:44:40;;;;;;;0.87;0.87;;;;;;;;;;6156638;23;20175;-85
2022/04/26 17:47:09;;;;;;;1.67;1.57;;;;;;;;;;6156577;23;20182;-84
2022/04/26 17:49:55;;;;;;;0.80;0.80;;;;;;;;;;6156453;23;20234;-84
2022/04/26 17:52:25;;;;;;;1.20;1.10;;;;;;;;;;6156229;23;20185;-84
2022/04/26 17:57:41;;;;;;;0.97;0.97;;;;;;;;;;6180768;23;20183;-84
2022/04/26 18:00:12;;;;;;;1.93;1.60;;;;;;;;;;6157646;23;20182;-84
2022/04/26 18:02:40;;;;;;;0.97;0.97;;;;;;;;;;6156102;23;20203;-84
2022/04/26 18:05:10;;;;;;;5.00;1.70;;;;;;;;;;6155942;23;20271;-84
2022/04/26 18:07:38;;;;;;;2.30;1.27;;;;;;;;;;6156141;23;20200;-84
2022/04/26 18:10:08;;;;;;;1.33;1.23;;;;;;;;;;6156228;23;20188;-84
2022/04/26 18:12:37;;;;;;;2.47;1.07;;;;;;;;;;6156377;23;20180;-84
2022/04/26 18:15:06;;;;;;;1.07;0.90;;;;;;;;;;6157353;23;20182;-84
2022/04/26 18:17:34;;;;;;;2.00;1.50;;;;;;;;;;6156587;23;20208;-84
2022/04/26 18:20:04;;;;;;;1.33;1.23;;;;;;;;;;6155908;23;20244;-84
2022/04/26 18:22:33;;;;;;;0.80;0.80;;;;;;;;;;6156244;23;20182;-84
2022/04/26 18:25:01;;;;;;;1.10;1.10;;;;;;;;;;6157048;23;20180;-84
2022/04/26 18:27:31;;;;;;;1.43;1.33;;;;;;;;;;6155835;23;20174;-84
2022/04/26 18:29:59;;;;;;;0.70;0.70;;;;;;;;;;6154830;23;20238;-83
2022/04/26 18:32:28;;;;;;;2.50;1.27;;;;;;;;;;6156965;23;20223;-84
2022/04/26 18:34:56;;;;;;;1.57;0.90;;;;;;;;;;6156104;23;20185;-83
2022/04/26 18:37:24;;;;;;;0.80;0.80;;;;;;;;;;6156209;23;20190;-83
2022/04/26 18:39:53;;;;;;;1.17;1.07;;;;;;;;;;6155337;23;20179;-84
2022/04/26 18:42:22;;;;;;;1.10;1.00;;;;;;;;;;6155358;23;20178;-84
2022/04/26 18:44:51;;;;;;;0.90;0.90;;;;;;;;;;6154899;23;20178;-84
2022/04/26 18:47:20;;;;;;;6.60;1.00;;;;;;;;;;6155199;23;20178;-83
2022/04/26 18:49:53;;;;;;;1.73;1.10;;;;;;;;;;6155914;23;20180;-83
2022/04/26 18:52:21;;;;;;;1.67;1.43;;;;;;;;;;6155187;23;20188;-83
2022/04/26 18:54:50;;;;;;;2.10;1.10;;;;;;;;;;6156879;23;20173;-84
2022/04/26 18:57:25;;;;;;;3.93;0.90;;;;;;;;;;6155838;23;20263;-84
2022/04/26 18:59:56;;;;;;;1.03;0.97;;;;;;;;;;6155277;23;20186;-83
2022/04/26 19:02:24;;;;;;;5.00;2.00;;;;;;;;;;6155802;23;20176;-84
2022/04/26 19:04:53;;;;;;;7.50;1.30;;;;;;;;;;6158053;23;20199;-83
2022/04/26 19:07:21;;;;;;;1.13;1.07;;;;;;;;;;6161076;23;20187;-82
2022/04/26 19:12:39;;;;;;;1.40;1.30;;;;;;;;;;6160363;23;20225;-83
2022/04/26 19:15:09;;;;;;;0.90;0.90;;;;;;;;;;6186730;23;20175;-83
2022/04/26 19:17:38;;;;;;;2.27;0.83;;;;;;;;;;6160376;23;20191;-83
2022/04/26 19:20:07;;;;;;;0.97;0.97;;;;;;;;;;6160526;23;20221;-83
2022/04/26 19:22:35;;;;;;;1.47;0.80;;;;;;;;;;6161049;23;20177;-83
2022/04/26 19:25:04;;;;;;;1.00;1.00;;;;;;;;;;6187126;23;20171;-83
2022/04/26 19:27:32;;;;;;;1.43;1.07;;;;;;;;;;6186918;23;20181;-83
2022/04/26 19:30:00;;;;;;;0.63;0.63;;;;;;;;;;6187840;23;20171;-83
2022/04/26 19:32:30;;;;;;;1.60;1.10;;;;;;;;;;6160649;23;20271;-83
2022/04/26 19:34:59;;;;;;;1.10;1.10;;;;;;;;;;6160840;23;20183;-83
2022/04/26 19:37:27;;;;;;;0.80;0.80;;;;;;;;;;6162164;23;20201;-83
2022/04/26 19:39:56;;;;;;;1.97;1.37;;;;;;;;;;6188306;23;20175;-83
2022/04/26 19:42:26;;;;;;;0.70;0.70;;;;;;;;;;6188111;23;20175;-83
2022/04/26 19:44:55;;;;;;;0.80;0.80;;;;;;;;;;6162212;23;20202;-83
2022/04/26 19:47:23;;;;;;;4.00;0.90;;;;;;;;;;6162475;23;20175;-83